sensor_id;sensor_type;location;lat;lon;timestamp;P1;durP1;ratioP1;P2;durP2;ratioP2
41687;SDS011;27371;42.686;23.362;2022-10-26T00:03:59;14.00;;;4.82;;
41687;SDS011;27371;42.686;23.362;2022-10-26T00:06:24;13.60;;;4.75;;
41687;SDS011;27371;42.686;23.362;2022-10-26T00:08:52;12.45;;;4.32;;
41687;SDS011;27371;42.686;23.362;2022-10-26T00:11:19;17.67;;;4.60;;
41687;SDS011;27371;42.686;23.362;2022-10-26T00:13:47;9.32;;;4.45;;
41687;SDS011;27371;42.686;23.362;2022-10-26T00:16:21;11.27;;;5.00;;
41687;SDS011;27371;42.686;23.362;2022-10-26T00:21:14;15.68;;;5.03;;
41687;SDS011;27371;42.686;23.362;2022-10-26T00:23:40;12.48;;;5.10;;
41687;SDS011;27371;42.686;23.362;2022-10-26T00:26:06;13.75;;;4.80;;
41687;SDS011;27371;42.686;23.362;2022-10-26T00:28:32;12.88;;;4.28;;
41687;SDS011;27371;42.686;23.362;2022-10-26T00:31:04;14.55;;;5.10;;
41687;SDS011;27371;42.686;23.362;2022-10-26T00:33:32;11.93;;;4.78;;
41687;SDS011;27371;42.686;23.362;2022-10-26T00:35:58;8.52;;;4.90;;
41687;SDS011;27371;42.686;23.362;2022-10-26T00:38:24;9.43;;;4.25;;
41687;SDS011;27371;42.686;23.362;2022-10-26T00:40:49;11.48;;;4.32;;
41687;SDS011;27371;42.686;23.362;2022-10-26T00:45:46;10.90;;;4.18;;
41687;SDS011;27371;42.686;23.362;2022-10-26T00:48:21;11.40;;;4.32;;
41687;SDS011;27371;42.686;23.362;2022-10-26T00:50:50;12.32;;;4.47;;
41687;SDS011;27371;42.686;23.362;2022-10-26T00:53:18;13.20;;;4.63;;
41687;SDS011;27371;42.686;23.362;2022-10-26T00:55:46;13.80;;;4.88;;
41687;SDS011;27371;42.686;23.362;2022-10-26T00:58:13;12.13;;;4.20;;
41687;SDS011;27371;42.686;23.362;2022-10-26T01:00:40;8.95;;;4.22;;
41687;SDS011;27371;42.686;23.362;2022-10-26T01:03:07;13.85;;;4.10;;
41687;SDS011;27371;42.686;23.362;2022-10-26T01:05:33;14.90;;;4.65;;
41687;SDS011;27371;42.686;23.362;2022-10-26T01:08:02;12.00;;;4.68;;
41687;SDS011;27371;42.686;23.362;2022-10-26T01:10:28;12.30;;;4.93;;
41687;SDS011;27371;42.686;23.362;2022-10-26T01:12:54;11.20;;;4.30;;
41687;SDS011;27371;42.686;23.362;2022-10-26T01:15:23;13.60;;;4.47;;
41687;SDS011;27371;42.686;23.362;2022-10-26T01:21:13;10.90;;;4.38;;
41687;SDS011;27371;42.686;23.362;2022-10-26T01:29:24;11.25;;;4.63;;
41687;SDS011;27371;42.686;23.362;2022-10-26T01:32:13;15.23;;;4.93;;
41687;SDS011;27371;42.686;23.362;2022-10-26T01:35:03;9.65;;;4.28;;
41687;SDS011;27371;42.686;23.362;2022-10-26T01:37:35;13.35;;;4.55;;
41687;SDS011;27371;42.686;23.362;2022-10-26T01:42:36;10.65;;;4.75;;
41687;SDS011;27371;42.686;23.362;2022-10-26T01:45:08;19.40;;;5.57;;
41687;SDS011;27371;42.686;23.362;2022-10-26T01:47:36;12.38;;;4.65;;
41687;SDS011;27371;42.686;23.362;2022-10-26T01:50:04;10.05;;;4.65;;
41687;SDS011;27371;42.686;23.362;2022-10-26T01:52:31;11.98;;;4.78;;
41687;SDS011;27371;42.686;23.362;2022-10-26T01:55:06;10.65;;;4.82;;
41687;SDS011;27371;42.686;23.362;2022-10-26T01:57:52;10.75;;;5.10;;
41687;SDS011;27371;42.686;23.362;2022-10-26T02:00:26;8.90;;;4.68;;
41687;SDS011;27371;42.686;23.362;2022-10-26T02:11:59;14.68;;;4.70;;
41687;SDS011;27371;42.686;23.362;2022-10-26T02:20:33;15.10;;;6.30;;
41687;SDS011;27371;42.686;23.362;2022-10-26T02:23:03;20.55;;;6.25;;
41687;SDS011;27371;42.686;23.362;2022-10-26T02:25:32;14.07;;;6.32;;
41687;SDS011;27371;42.686;23.362;2022-10-26T02:28:04;15.65;;;6.72;;
41687;SDS011;27371;42.686;23.362;2022-10-26T02:30:32;12.95;;;6.32;;
41687;SDS011;27371;42.686;23.362;2022-10-26T02:32:59;14.98;;;6.18;;
41687;SDS011;27371;42.686;23.362;2022-10-26T02:35:30;19.17;;;6.90;;
41687;SDS011;27371;42.686;23.362;2022-10-26T02:38:00;11.75;;;7.07;;
41687;SDS011;27371;42.686;23.362;2022-10-26T02:40:29;18.90;;;7.85;;
41687;SDS011;27371;42.686;23.362;2022-10-26T02:42:57;15.77;;;7.10;;
41687;SDS011;27371;42.686;23.362;2022-10-26T02:45:29;16.92;;;7.63;;
41687;SDS011;27371;42.686;23.362;2022-10-26T02:48:02;23.05;;;8.18;;
41687;SDS011;27371;42.686;23.362;2022-10-26T02:50:32;16.73;;;8.30;;
41687;SDS011;27371;42.686;23.362;2022-10-26T02:53:09;18.88;;;8.57;;
41687;SDS011;27371;42.686;23.362;2022-10-26T02:55:45;20.48;;;8.52;;
41687;SDS011;27371;42.686;23.362;2022-10-26T02:58:18;13.65;;;7.68;;
41687;SDS011;27371;42.686;23.362;2022-10-26T03:00:49;17.58;;;7.60;;
41687;SDS011;27371;42.686;23.362;2022-10-26T03:03:15;16.65;;;7.93;;
41687;SDS011;27371;42.686;23.362;2022-10-26T03:05:42;20.27;;;8.20;;
41687;SDS011;27371;42.686;23.362;2022-10-26T03:08:08;18.75;;;7.28;;
41687;SDS011;27371;42.686;23.362;2022-10-26T03:10:34;12.65;;;7.07;;
41687;SDS011;27371;42.686;23.362;2022-10-26T03:13:06;13.60;;;6.65;;
41687;SDS011;27371;42.686;23.362;2022-10-26T03:15:33;21.48;;;7.03;;
41687;SDS011;27371;42.686;23.362;2022-10-26T03:17:58;14.23;;;7.35;;
41687;SDS011;27371;42.686;23.362;2022-10-26T03:20:24;15.07;;;6.32;;
41687;SDS011;27371;42.686;23.362;2022-10-26T03:22:49;17.35;;;6.50;;
41687;SDS011;27371;42.686;23.362;2022-10-26T03:25:15;14.80;;;5.80;;
41687;SDS011;27371;42.686;23.362;2022-10-26T03:27:41;11.80;;;6.35;;
41687;SDS011;27371;42.686;23.362;2022-10-26T03:30:07;12.35;;;6.22;;
41687;SDS011;27371;42.686;23.362;2022-10-26T03:32:33;13.65;;;6.32;;
41687;SDS011;27371;42.686;23.362;2022-10-26T03:34:58;15.05;;;5.82;;
41687;SDS011;27371;42.686;23.362;2022-10-26T03:37:23;13.15;;;6.28;;
41687;SDS011;27371;42.686;23.362;2022-10-26T03:39:49;12.40;;;5.93;;
41687;SDS011;27371;42.686;23.362;2022-10-26T03:42:14;14.90;;;6.53;;
41687;SDS011;27371;42.686;23.362;2022-10-26T03:44:40;14.48;;;5.93;;
41687;SDS011;27371;42.686;23.362;2022-10-26T03:47:06;11.75;;;5.82;;
41687;SDS011;27371;42.686;23.362;2022-10-26T03:49:31;11.02;;;5.93;;
41687;SDS011;27371;42.686;23.362;2022-10-26T03:51:57;10.90;;;5.78;;
41687;SDS011;27371;42.686;23.362;2022-10-26T03:54:22;14.77;;;6.20;;
41687;SDS011;27371;42.686;23.362;2022-10-26T03:56:49;11.82;;;5.82;;
41687;SDS011;27371;42.686;23.362;2022-10-26T03:59:14;11.20;;;5.38;;
41687;SDS011;27371;42.686;23.362;2022-10-26T04:01:40;11.27;;;5.35;;
41687;SDS011;27371;42.686;23.362;2022-10-26T04:04:05;11.52;;;6.22;;
41687;SDS011;27371;42.686;23.362;2022-10-26T04:06:31;13.88;;;5.57;;
41687;SDS011;27371;42.686;23.362;2022-10-26T04:08:56;10.00;;;5.82;;
41687;SDS011;27371;42.686;23.362;2022-10-26T04:11:26;11.60;;;5.55;;
41687;SDS011;27371;42.686;23.362;2022-10-26T04:13:55;12.75;;;5.90;;
41687;SDS011;27371;42.686;23.362;2022-10-26T04:16:24;11.52;;;6.25;;
41687;SDS011;27371;42.686;23.362;2022-10-26T04:18:49;11.85;;;5.95;;
41687;SDS011;27371;42.686;23.362;2022-10-26T04:21:15;11.27;;;5.97;;
41687;SDS011;27371;42.686;23.362;2022-10-26T04:23:40;18.05;;;7.10;;
41687;SDS011;27371;42.686;23.362;2022-10-26T04:26:06;10.68;;;5.82;;
41687;SDS011;27371;42.686;23.362;2022-10-26T04:28:31;10.98;;;5.68;;
41687;SDS011;27371;42.686;23.362;2022-10-26T04:30:57;12.52;;;6.10;;
41687;SDS011;27371;42.686;23.362;2022-10-26T04:33:22;17.67;;;6.60;;
41687;SDS011;27371;42.686;23.362;2022-10-26T04:35:48;14.40;;;6.10;;
41687;SDS011;27371;42.686;23.362;2022-10-26T04:38:13;11.93;;;5.88;;
41687;SDS011;27371;42.686;23.362;2022-10-26T04:40:39;13.75;;;6.30;;
41687;SDS011;27371;42.686;23.362;2022-10-26T04:43:04;12.43;;;6.30;;
41687;SDS011;27371;42.686;23.362;2022-10-26T04:45:30;12.45;;;6.90;;
41687;SDS011;27371;42.686;23.362;2022-10-26T04:50:25;15.30;;;6.50;;
41687;SDS011;27371;42.686;23.362;2022-10-26T04:52:51;15.70;;;6.28;;
41687;SDS011;27371;42.686;23.362;2022-10-26T04:55:17;11.32;;;6.28;;
41687;SDS011;27371;42.686;23.362;2022-10-26T04:57:43;21.75;;;6.78;;
41687;SDS011;27371;42.686;23.362;2022-10-26T05:00:09;17.30;;;6.50;;
41687;SDS011;27371;42.686;23.362;2022-10-26T05:02:35;16.08;;;8.27;;
41687;SDS011;27371;42.686;23.362;2022-10-26T05:05:00;20.05;;;8.13;;
41687;SDS011;27371;42.686;23.362;2022-10-26T05:07:26;18.10;;;9.20;;
41687;SDS011;27371;42.686;23.362;2022-10-26T05:09:52;20.30;;;9.43;;
41687;SDS011;27371;42.686;23.362;2022-10-26T05:12:17;18.00;;;9.15;;
41687;SDS011;27371;42.686;23.362;2022-10-26T05:14:43;21.17;;;8.60;;
41687;SDS011;27371;42.686;23.362;2022-10-26T05:17:09;19.27;;;9.48;;
41687;SDS011;27371;42.686;23.362;2022-10-26T05:19:34;23.15;;;10.27;;
41687;SDS011;27371;42.686;23.362;2022-10-26T05:22:00;20.63;;;9.13;;
41687;SDS011;27371;42.686;23.362;2022-10-26T05:24:25;26.27;;;9.80;;
41687;SDS011;27371;42.686;23.362;2022-10-26T05:26:51;24.38;;;10.77;;
41687;SDS011;27371;42.686;23.362;2022-10-26T05:29:16;20.00;;;8.98;;
41687;SDS011;27371;42.686;23.362;2022-10-26T05:31:42;24.65;;;9.02;;
41687;SDS011;27371;42.686;23.362;2022-10-26T05:34:07;24.77;;;10.73;;
41687;SDS011;27371;42.686;23.362;2022-10-26T05:36:33;28.17;;;10.50;;
41687;SDS011;27371;42.686;23.362;2022-10-26T05:38:58;29.08;;;9.98;;
41687;SDS011;27371;42.686;23.362;2022-10-26T05:41:24;21.58;;;10.07;;
41687;SDS011;27371;42.686;23.362;2022-10-26T05:43:49;29.92;;;11.27;;
41687;SDS011;27371;42.686;23.362;2022-10-26T05:46:15;26.63;;;11.60;;
41687;SDS011;27371;42.686;23.362;2022-10-26T05:48:40;26.20;;;11.50;;
41687;SDS011;27371;42.686;23.362;2022-10-26T05:51:06;25.98;;;10.70;;
41687;SDS011;27371;42.686;23.362;2022-10-26T05:53:31;25.38;;;10.48;;
41687;SDS011;27371;42.686;23.362;2022-10-26T05:55:57;20.90;;;10.02;;
41687;SDS011;27371;42.686;23.362;2022-10-26T05:58:22;34.88;;;10.30;;
41687;SDS011;27371;42.686;23.362;2022-10-26T06:06:28;31.75;;;10.70;;
41687;SDS011;27371;42.686;23.362;2022-10-26T06:09:01;25.23;;;10.27;;
41687;SDS011;27371;42.686;23.362;2022-10-26T06:11:27;24.02;;;10.52;;
41687;SDS011;27371;42.686;23.362;2022-10-26T06:13:53;23.55;;;11.02;;
41687;SDS011;27371;42.686;23.362;2022-10-26T06:28:35;29.30;;;9.85;;
41687;SDS011;27371;42.686;23.362;2022-10-26T06:30:56;29.13;;;10.20;;
41687;SDS011;27371;42.686;23.362;2022-10-26T06:33:22;22.85;;;9.13;;
41687;SDS011;27371;42.686;23.362;2022-10-26T06:38:33;25.23;;;10.30;;
41687;SDS011;27371;42.686;23.362;2022-10-26T06:41:02;20.45;;;8.55;;
41687;SDS011;27371;42.686;23.362;2022-10-26T06:43:29;21.83;;;8.50;;
41687;SDS011;27371;42.686;23.362;2022-10-26T06:46:17;20.05;;;10.43;;
41687;SDS011;27371;42.686;23.362;2022-10-26T06:51:24;22.55;;;10.95;;
41687;SDS011;27371;42.686;23.362;2022-10-26T06:54:04;27.05;;;10.65;;
41687;SDS011;27371;42.686;23.362;2022-10-26T06:56:37;20.08;;;10.73;;
41687;SDS011;27371;42.686;23.362;2022-10-26T06:59:05;18.55;;;11.30;;
41687;SDS011;27371;42.686;23.362;2022-10-26T07:01:36;19.73;;;9.15;;
41687;SDS011;27371;42.686;23.362;2022-10-26T07:04:02;19.73;;;8.10;;
41687;SDS011;27371;42.686;23.362;2022-10-26T07:06:27;9.10;;;6.63;;
41687;SDS011;27371;42.686;23.362;2022-10-26T07:08:53;10.65;;;6.60;;
41687;SDS011;27371;42.686;23.362;2022-10-26T07:11:19;14.93;;;7.07;;
41687;SDS011;27371;42.686;23.362;2022-10-26T07:13:44;15.88;;;6.40;;
41687;SDS011;27371;42.686;23.362;2022-10-26T07:16:10;14.57;;;5.85;;
41687;SDS011;27371;42.686;23.362;2022-10-26T07:18:35;15.85;;;6.65;;
41687;SDS011;27371;42.686;23.362;2022-10-26T07:21:01;13.38;;;5.72;;
41687;SDS011;27371;42.686;23.362;2022-10-26T07:23:27;13.68;;;6.13;;
41687;SDS011;27371;42.686;23.362;2022-10-26T07:25:52;11.95;;;5.47;;
41687;SDS011;27371;42.686;23.362;2022-10-26T07:28:18;21.48;;;6.25;;
41687;SDS011;27371;42.686;23.362;2022-10-26T07:30:43;12.07;;;5.82;;
41687;SDS011;27371;42.686;23.362;2022-10-26T07:33:10;13.82;;;5.22;;
41687;SDS011;27371;42.686;23.362;2022-10-26T07:35:36;11.77;;;6.47;;
41687;SDS011;27371;42.686;23.362;2022-10-26T07:38:03;10.18;;;5.20;;
41687;SDS011;27371;42.686;23.362;2022-10-26T07:40:29;13.20;;;5.32;;
41687;SDS011;27371;42.686;23.362;2022-10-26T07:42:55;10.25;;;5.40;;
41687;SDS011;27371;42.686;23.362;2022-10-26T07:45:22;8.32;;;5.40;;
41687;SDS011;27371;42.686;23.362;2022-10-26T07:47:48;10.68;;;5.43;;
41687;SDS011;27371;42.686;23.362;2022-10-26T07:50:14;8.50;;;5.03;;
41687;SDS011;27371;42.686;23.362;2022-10-26T07:52:40;14.32;;;6.15;;
41687;SDS011;27371;42.686;23.362;2022-10-26T07:55:06;14.05;;;5.28;;
41687;SDS011;27371;42.686;23.362;2022-10-26T07:57:33;16.67;;;5.90;;
41687;SDS011;27371;42.686;23.362;2022-10-26T07:59:59;10.82;;;5.32;;
41687;SDS011;27371;42.686;23.362;2022-10-26T08:02:25;13.50;;;5.80;;
41687;SDS011;27371;42.686;23.362;2022-10-26T08:04:50;15.82;;;5.80;;
41687;SDS011;27371;42.686;23.362;2022-10-26T08:07:16;11.48;;;6.13;;
41687;SDS011;27371;42.686;23.362;2022-10-26T08:09:41;9.27;;;5.88;;
41687;SDS011;27371;42.686;23.362;2022-10-26T08:12:07;14.07;;;6.03;;
41687;SDS011;27371;42.686;23.362;2022-10-26T08:14:33;12.27;;;5.82;;
41687;SDS011;27371;42.686;23.362;2022-10-26T08:16:58;9.02;;;5.55;;
41687;SDS011;27371;42.686;23.362;2022-10-26T08:19:23;11.50;;;6.05;;
41687;SDS011;27371;42.686;23.362;2022-10-26T08:21:49;13.55;;;7.45;;
41687;SDS011;27371;42.686;23.362;2022-10-26T08:24:14;12.38;;;6.40;;
41687;SDS011;27371;42.686;23.362;2022-10-26T08:26:40;13.88;;;6.15;;
41687;SDS011;27371;42.686;23.362;2022-10-26T08:29:06;14.38;;;6.13;;
41687;SDS011;27371;42.686;23.362;2022-10-26T08:31:31;12.95;;;5.03;;
41687;SDS011;27371;42.686;23.362;2022-10-26T08:33:57;10.15;;;5.65;;
41687;SDS011;27371;42.686;23.362;2022-10-26T08:36:24;9.00;;;4.55;;
41687;SDS011;27371;42.686;23.362;2022-10-26T08:38:51;9.52;;;4.28;;
41687;SDS011;27371;42.686;23.362;2022-10-26T08:41:16;8.00;;;4.18;;
41687;SDS011;27371;42.686;23.362;2022-10-26T08:43:48;9.60;;;4.38;;
41687;SDS011;27371;42.686;23.362;2022-10-26T08:46:19;7.18;;;3.45;;
41687;SDS011;27371;42.686;23.362;2022-10-26T08:48:59;13.00;;;4.00;;
41687;SDS011;27371;42.686;23.362;2022-10-26T08:51:32;8.07;;;3.72;;
41687;SDS011;27371;42.686;23.362;2022-10-26T08:56:38;7.70;;;3.55;;
41687;SDS011;27371;42.686;23.362;2022-10-26T08:59:12;8.70;;;3.00;;
41687;SDS011;27371;42.686;23.362;2022-10-26T09:01:44;6.38;;;3.67;;
41687;SDS011;27371;42.686;23.362;2022-10-26T09:04:10;9.35;;;3.75;;
41687;SDS011;27371;42.686;23.362;2022-10-26T09:15:25;7.40;;;3.67;;
41687;SDS011;27371;42.686;23.362;2022-10-26T09:26:00;12.05;;;3.63;;
41687;SDS011;27371;42.686;23.362;2022-10-26T09:28:31;9.18;;;3.53;;
41687;SDS011;27371;42.686;23.362;2022-10-26T09:31:01;10.95;;;2.90;;
41687;SDS011;27371;42.686;23.362;2022-10-26T09:33:28;7.38;;;3.40;;
41687;SDS011;27371;42.686;23.362;2022-10-26T09:35:59;6.07;;;2.70;;
41687;SDS011;27371;42.686;23.362;2022-10-26T09:38:28;10.02;;;2.92;;
41687;SDS011;27371;42.686;23.362;2022-10-26T09:43:24;8.20;;;2.60;;
41687;SDS011;27371;42.686;23.362;2022-10-26T09:45:54;6.00;;;2.65;;
41687;SDS011;27371;42.686;23.362;2022-10-26T09:48:28;6.68;;;2.85;;
41687;SDS011;27371;42.686;23.362;2022-10-26T09:50:59;6.82;;;2.05;;
41687;SDS011;27371;42.686;23.362;2022-10-26T09:53:25;5.00;;;2.67;;
41687;SDS011;27371;42.686;23.362;2022-10-26T09:55:55;7.90;;;2.40;;
41687;SDS011;27371;42.686;23.362;2022-10-26T09:58:39;8.68;;;2.38;;
41687;SDS011;27371;42.686;23.362;2022-10-26T10:01:05;6.55;;;2.15;;
41687;SDS011;27371;42.686;23.362;2022-10-26T10:03:31;6.10;;;2.00;;
41687;SDS011;27371;42.686;23.362;2022-10-26T10:06:18;7.53;;;1.55;;
41687;SDS011;27371;42.686;23.362;2022-10-26T10:09:03;5.90;;;1.60;;
41687;SDS011;27371;42.686;23.362;2022-10-26T10:11:39;6.78;;;2.05;;
41687;SDS011;27371;42.686;23.362;2022-10-26T10:14:05;2.22;;;1.15;;
41687;SDS011;27371;42.686;23.362;2022-10-26T10:16:33;8.38;;;1.83;;
41687;SDS011;27371;42.686;23.362;2022-10-26T10:18:59;4.32;;;1.40;;
41687;SDS011;27371;42.686;23.362;2022-10-26T10:21:35;7.13;;;1.40;;
41687;SDS011;27371;42.686;23.362;2022-10-26T10:24:19;7.18;;;1.60;;
41687;SDS011;27371;42.686;23.362;2022-10-26T10:26:59;6.20;;;1.80;;
41687;SDS011;27371;42.686;23.362;2022-10-26T10:29:30;5.00;;;1.92;;
41687;SDS011;27371;42.686;23.362;2022-10-26T10:32:15;6.38;;;1.55;;
41687;SDS011;27371;42.686;23.362;2022-10-26T10:34:45;8.43;;;2.85;;
41687;SDS011;27371;42.686;23.362;2022-10-26T10:37:20;6.55;;;1.83;;
41687;SDS011;27371;42.686;23.362;2022-10-26T10:40:34;5.72;;;1.90;;
41687;SDS011;27371;42.686;23.362;2022-10-26T10:42:51;7.55;;;2.20;;
41687;SDS011;27371;42.686;23.362;2022-10-26T10:45:22;2.60;;;1.40;;
41687;SDS011;27371;42.686;23.362;2022-10-26T10:48:32;6.38;;;1.60;;
41687;SDS011;27371;42.686;23.362;2022-10-26T10:53:29;4.90;;;1.33;;
41687;SDS011;27371;42.686;23.362;2022-10-26T11:02:12;5.55;;;2.00;;
41687;SDS011;27371;42.686;23.362;2022-10-26T11:07:25;11.85;;;1.67;;
41687;SDS011;27371;42.686;23.362;2022-10-26T11:09:55;5.53;;;1.52;;
41687;SDS011;27371;42.686;23.362;2022-10-26T11:12:27;10.50;;;3.05;;
41687;SDS011;27371;42.686;23.362;2022-10-26T11:14:59;4.82;;;2.83;;
41687;SDS011;27371;42.686;23.362;2022-10-26T11:17:30;6.40;;;2.22;;
41687;SDS011;27371;42.686;23.362;2022-10-26T11:20:14;5.35;;;2.22;;
41687;SDS011;27371;42.686;23.362;2022-10-26T11:22:52;3.38;;;1.75;;
41687;SDS011;27371;42.686;23.362;2022-10-26T11:25:35;4.45;;;1.70;;
41687;SDS011;27371;42.686;23.362;2022-10-26T11:28:13;6.22;;;2.28;;
41687;SDS011;27371;42.686;23.362;2022-10-26T11:31:02;4.03;;;1.45;;
41687;SDS011;27371;42.686;23.362;2022-10-26T11:33:41;3.42;;;1.23;;
41687;SDS011;27371;42.686;23.362;2022-10-26T11:36:13;7.65;;;2.10;;
41687;SDS011;27371;42.686;23.362;2022-10-26T11:41:30;6.28;;;1.65;;
41687;SDS011;27371;42.686;23.362;2022-10-26T11:46:42;6.38;;;1.73;;
41687;SDS011;27371;42.686;23.362;2022-10-26T11:49:21;5.13;;;1.88;;
41687;SDS011;27371;42.686;23.362;2022-10-26T11:52:04;2.38;;;1.00;;
41687;SDS011;27371;42.686;23.362;2022-10-26T11:54:33;3.67;;;1.35;;
41687;SDS011;27371;42.686;23.362;2022-10-26T11:57:04;2.70;;;1.23;;
41687;SDS011;27371;42.686;23.362;2022-10-26T11:59:32;2.40;;;1.25;;
41687;SDS011;27371;42.686;23.362;2022-10-26T12:04:59;6.93;;;0.90;;
41687;SDS011;27371;42.686;23.362;2022-10-26T12:07:31;1.55;;;0.93;;
41687;SDS011;27371;42.686;23.362;2022-10-26T12:10:00;3.13;;;1.52;;
41687;SDS011;27371;42.686;23.362;2022-10-26T12:23:26;1.90;;;0.68;;
41687;SDS011;27371;42.686;23.362;2022-10-26T12:26:09;1.85;;;1.20;;
41687;SDS011;27371;42.686;23.362;2022-10-26T12:34:02;1.38;;;0.63;;
41687;SDS011;27371;42.686;23.362;2022-10-26T12:39:34;5.68;;;0.68;;
41687;SDS011;27371;42.686;23.362;2022-10-26T12:47:04;2.83;;;0.70;;
41687;SDS011;27371;42.686;23.362;2022-10-26T12:58:01;5.38;;;0.82;;
41687;SDS011;27371;42.686;23.362;2022-10-26T13:00:28;3.80;;;1.35;;
41687;SDS011;27371;42.686;23.362;2022-10-26T13:08:10;3.10;;;1.13;;
41687;SDS011;27371;42.686;23.362;2022-10-26T13:10:39;2.63;;;1.13;;
41687;SDS011;27371;42.686;23.362;2022-10-26T13:13:24;5.13;;;1.30;;
41687;SDS011;27371;42.686;23.362;2022-10-26T13:15:53;3.88;;;1.17;;
41687;SDS011;27371;42.686;23.362;2022-10-26T13:18:20;4.47;;;1.75;;
41687;SDS011;27371;42.686;23.362;2022-10-26T13:23:34;5.72;;;2.63;;
41687;SDS011;27371;42.686;23.362;2022-10-26T13:31:07;5.72;;;2.50;;
41687;SDS011;27371;42.686;23.362;2022-10-26T13:33:55;5.88;;;2.75;;
41687;SDS011;27371;42.686;23.362;2022-10-26T13:36:59;4.95;;;1.60;;
41687;SDS011;27371;42.686;23.362;2022-10-26T13:39:47;3.47;;;1.30;;
41687;SDS011;27371;42.686;23.362;2022-10-26T13:42:20;7.38;;;1.35;;
41687;SDS011;27371;42.686;23.362;2022-10-26T13:45:08;4.07;;;1.92;;
41687;SDS011;27371;42.686;23.362;2022-10-26T13:47:46;2.70;;;2.15;;
41687;SDS011;27371;42.686;23.362;2022-10-26T13:50:49;7.80;;;1.88;;
41687;SDS011;27371;42.686;23.362;2022-10-26T13:56:15;5.25;;;3.65;;
41687;SDS011;27371;42.686;23.362;2022-10-26T13:58:51;3.90;;;1.15;;
41687;SDS011;27371;42.686;23.362;2022-10-26T14:01:33;4.90;;;2.28;;
41687;SDS011;27371;42.686;23.362;2022-10-26T14:04:12;1.60;;;0.63;;
41687;SDS011;27371;42.686;23.362;2022-10-26T14:06:39;5.05;;;1.27;;
41687;SDS011;27371;42.686;23.362;2022-10-26T14:09:11;2.90;;;1.10;;
41687;SDS011;27371;42.686;23.362;2022-10-26T14:14:29;5.45;;;1.95;;
41687;SDS011;27371;42.686;23.362;2022-10-26T14:16:57;5.05;;;1.67;;
41687;SDS011;27371;42.686;23.362;2022-10-26T14:19:24;5.78;;;2.08;;
41687;SDS011;27371;42.686;23.362;2022-10-26T14:21:50;6.50;;;1.30;;
41687;SDS011;27371;42.686;23.362;2022-10-26T14:24:20;4.63;;;1.42;;
41687;SDS011;27371;42.686;23.362;2022-10-26T14:26:53;4.25;;;0.80;;
41687;SDS011;27371;42.686;23.362;2022-10-26T14:29:20;3.17;;;1.00;;
41687;SDS011;27371;42.686;23.362;2022-10-26T14:31:47;4.20;;;1.67;;
41687;SDS011;27371;42.686;23.362;2022-10-26T14:34:14;2.15;;;0.80;;
41687;SDS011;27371;42.686;23.362;2022-10-26T14:39:28;7.38;;;1.63;;
41687;SDS011;27371;42.686;23.362;2022-10-26T14:41:54;2.05;;;1.10;;
41687;SDS011;27371;42.686;23.362;2022-10-26T14:44:22;6.25;;;2.60;;
41687;SDS011;27371;42.686;23.362;2022-10-26T14:46:49;3.72;;;1.63;;
41687;SDS011;27371;42.686;23.362;2022-10-26T14:49:23;6.72;;;1.65;;
41687;SDS011;27371;42.686;23.362;2022-10-26T14:52:04;4.38;;;1.98;;
41687;SDS011;27371;42.686;23.362;2022-10-26T14:54:30;7.82;;;2.30;;
41687;SDS011;27371;42.686;23.362;2022-10-26T14:56:57;7.20;;;1.92;;
41687;SDS011;27371;42.686;23.362;2022-10-26T14:59:27;3.17;;;1.40;;
41687;SDS011;27371;42.686;23.362;2022-10-26T15:04:39;5.47;;;1.85;;
41687;SDS011;27371;42.686;23.362;2022-10-26T15:09:36;7.03;;;1.30;;
41687;SDS011;27371;42.686;23.362;2022-10-26T15:12:05;7.68;;;1.88;;
41687;SDS011;27371;42.686;23.362;2022-10-26T15:14:31;7.53;;;2.00;;
41687;SDS011;27371;42.686;23.362;2022-10-26T15:16:58;11.85;;;2.38;;
41687;SDS011;27371;42.686;23.362;2022-10-26T15:19:24;9.40;;;2.40;;
41687;SDS011;27371;42.686;23.362;2022-10-26T15:21:51;9.95;;;4.03;;
41687;SDS011;27371;42.686;23.362;2022-10-26T15:24:28;14.10;;;3.55;;
41687;SDS011;27371;42.686;23.362;2022-10-26T15:26:56;10.35;;;3.35;;
41687;SDS011;27371;42.686;23.362;2022-10-26T15:32:01;13.48;;;3.53;;
41687;SDS011;27371;42.686;23.362;2022-10-26T15:34:28;8.43;;;2.45;;
41687;SDS011;27371;42.686;23.362;2022-10-26T15:36:54;6.43;;;2.30;;
41687;SDS011;27371;42.686;23.362;2022-10-26T15:39:20;8.07;;;2.50;;
41687;SDS011;27371;42.686;23.362;2022-10-26T15:41:46;10.68;;;2.72;;
41687;SDS011;27371;42.686;23.362;2022-10-26T15:44:13;15.18;;;2.80;;
41687;SDS011;27371;42.686;23.362;2022-10-26T15:46:42;9.75;;;2.72;;
41687;SDS011;27371;42.686;23.362;2022-10-26T15:49:13;6.18;;;2.50;;
41687;SDS011;27371;42.686;23.362;2022-10-26T15:51:44;14.38;;;2.80;;
41687;SDS011;27371;42.686;23.362;2022-10-26T15:54:10;14.48;;;3.72;;
41687;SDS011;27371;42.686;23.362;2022-10-26T15:56:37;11.07;;;2.90;;
41687;SDS011;27371;42.686;23.362;2022-10-26T15:59:05;7.97;;;2.45;;
41687;SDS011;27371;42.686;23.362;2022-10-26T16:01:42;5.63;;;2.13;;
41687;SDS011;27371;42.686;23.362;2022-10-26T16:04:08;10.73;;;2.78;;
41687;SDS011;27371;42.686;23.362;2022-10-26T16:06:35;11.10;;;3.20;;
41687;SDS011;27371;42.686;23.362;2022-10-26T16:09:04;9.32;;;2.83;;
41687;SDS011;27371;42.686;23.362;2022-10-26T16:11:31;7.28;;;2.40;;
41687;SDS011;27371;42.686;23.362;2022-10-26T16:13:57;12.02;;;2.55;;
41687;SDS011;27371;42.686;23.362;2022-10-26T16:16:23;7.18;;;2.42;;
41687;SDS011;27371;42.686;23.362;2022-10-26T16:18:52;10.45;;;2.45;;
41687;SDS011;27371;42.686;23.362;2022-10-26T16:21:19;11.63;;;3.30;;
41687;SDS011;27371;42.686;23.362;2022-10-26T16:23:47;12.45;;;3.88;;
41687;SDS011;27371;42.686;23.362;2022-10-26T16:26:14;11.80;;;3.75;;
41687;SDS011;27371;42.686;23.362;2022-10-26T16:28:39;10.90;;;3.13;;
41687;SDS011;27371;42.686;23.362;2022-10-26T16:31:06;11.45;;;3.10;;
41687;SDS011;27371;42.686;23.362;2022-10-26T16:33:34;11.90;;;3.30;;
41687;SDS011;27371;42.686;23.362;2022-10-26T16:36:00;12.00;;;3.88;;
41687;SDS011;27371;42.686;23.362;2022-10-26T16:38:26;7.45;;;3.42;;
41687;SDS011;27371;42.686;23.362;2022-10-26T16:41:02;6.40;;;3.05;;
41687;SDS011;27371;42.686;23.362;2022-10-26T16:43:32;8.85;;;3.50;;
41687;SDS011;27371;42.686;23.362;2022-10-26T16:46:09;9.43;;;3.60;;
41687;SDS011;27371;42.686;23.362;2022-10-26T16:48:40;19.98;;;4.80;;
41687;SDS011;27371;42.686;23.362;2022-10-26T16:51:11;12.43;;;5.25;;
41687;SDS011;27371;42.686;23.362;2022-10-26T16:53:41;9.20;;;3.95;;
41687;SDS011;27371;42.686;23.362;2022-10-26T16:56:28;8.50;;;4.60;;
41687;SDS011;27371;42.686;23.362;2022-10-26T16:58:54;7.07;;;4.20;;
41687;SDS011;27371;42.686;23.362;2022-10-26T17:01:20;14.10;;;4.03;;
41687;SDS011;27371;42.686;23.362;2022-10-26T17:03:47;10.65;;;3.97;;
41687;SDS011;27371;42.686;23.362;2022-10-26T17:06:14;12.30;;;3.88;;
41687;SDS011;27371;42.686;23.362;2022-10-26T17:08:41;13.70;;;4.68;;
41687;SDS011;27371;42.686;23.362;2022-10-26T17:13:33;11.98;;;4.88;;
41687;SDS011;27371;42.686;23.362;2022-10-26T17:16:02;14.65;;;4.30;;
41687;SDS011;27371;42.686;23.362;2022-10-26T17:18:29;15.50;;;4.63;;
41687;SDS011;27371;42.686;23.362;2022-10-26T17:20:55;9.38;;;4.32;;
41687;SDS011;27371;42.686;23.362;2022-10-26T17:23:20;11.13;;;5.07;;
41687;SDS011;27371;42.686;23.362;2022-10-26T17:25:46;15.77;;;8.35;;